Time;durP1;ratioP1;P1;durP2;ratioP2;P2;SDS_P1;SDS_P2;PMS_P1;PMS_P2;Temp;Humidity;BMP_temperature;BMP_pressure;BME280_temperature;BME280_humidity;BME280_pressure;Samples;Min_cycle;Max_cycle;Signal;HPM_P1;HPM_P2
2023/05/14 00:00:00;;;;;;;;;;;12.70;99.90;;;;;;4896685;29;20037;-69
2023/05/14 00:02:25;;;;;;;;;;;12.60;99.90;;;;;;4911894;29;19935;-69
2023/05/14 00:04:51;;;;;;;;;;;12.60;99.90;;;;;;4895608;29;19928;-74
2023/05/14 00:07:17;;;;;;;;;;;12.60;99.90;;;;;;4895786;29;20050;-68
2023/05/14 00:09:43;;;;;;;;;;;12.60;99.90;;;;;;4911485;29;19939;-68
2023/05/14 00:12:08;;;;;;;;;;;12.60;99.90;;;;;;4911485;29;19936;-68
2023/05/14 00:14:34;;;;;;;;;;;12.60;99.90;;;;;;4896068;29;20266;-68
2023/05/14 00:17:00;;;;;;;;;;;12.50;99.90;;;;;;4896635;29;20004;-68
2023/05/14 00:19:26;;;;;;;;;;;12.50;99.90;;;;;;4864365;29;19927;-68
2023/05/14 00:21:51;;;;;;;;;;;12.50;99.90;;;;;;4911410;29;19927;-73
2023/05/14 00:24:17;;;;;;;;;;;12.50;99.90;;;;;;4910971;29;19988;-69
2023/05/14 00:26:42;;;;;;;;;;;12.50;99.90;;;;;;4896021;29;19935;-70
2023/05/14 00:29:08;;;;;;;;;;;12.40;99.90;;;;;;4910972;29;20404;-68
2023/05/14 00:31:34;;;;;;;;;;;12.40;99.90;;;;;;4895660;29;20026;-68
2023/05/14 00:34:00;;;;;;;;;;;12.40;99.90;;;;;;4911054;29;19927;-68
2023/05/14 00:36:25;;;;;;;;;;;12.40;99.90;;;;;;4897023;29;19935;-68
2023/05/14 00:38:51;;;;;;;;;;;12.30;99.90;;;;;;4880441;29;19999;-69
2023/05/14 00:41:16;;;;;;;;;;;12.30;99.90;;;;;;4895260;29;20038;-68
2023/05/14 00:43:42;;;;;;;;;;;12.20;99.90;;;;;;4880383;29;19927;-68
2023/05/14 00:46:08;;;;;;;;;;;12.20;99.90;;;;;;4895327;29;19971;-68
2023/05/14 00:48:34;;;;;;;;;;;12.20;99.90;;;;;;4896423;29;19927;-68
2023/05/14 00:50:59;;;;;;;;;;;12.20;99.90;;;;;;4896102;29;20027;-69
2023/05/14 00:53:25;;;;;;;;;;;12.20;99.90;;;;;;4897398;29;20364;-68
2023/05/14 00:55:51;;;;;;;;;;;12.10;99.90;;;;;;4899053;29;19927;-68
2023/05/14 00:58:16;;;;;;;;;;;12.10;99.90;;;;;;4914440;29;19931;-69
2023/05/14 01:00:42;;;;;;;;;;;12.10;99.90;;;;;;4914993;29;19927;-68
2023/05/14 01:03:08;;;;;;;;;;;12.00;99.90;;;;;;4883253;29;19931;-68
2023/05/14 01:05:42;;;;;;;;;;;12.00;99.90;;;;;;4899098;29;19934;-68
2023/05/14 01:08:12;;;;;;;;;;;12.00;99.90;;;;;;4898227;29;19979;-69
2023/05/14 01:10:41;;;;;;;;;;;12.00;99.90;;;;;;4898552;29;20432;-68
2023/05/14 01:13:33;;;;;;;;;;;12.00;99.90;;;;;;4898672;29;19934;-69
2023/05/14 01:15:59;;;;;;;;;;;12.00;99.90;;;;;;4881946;29;19927;-69
2023/05/14 01:18:26;;;;;;;;;;;12.00;99.90;;;;;;4914452;29;19935;-68
2023/05/14 01:20:53;;;;;;;;;;;12.00;99.90;;;;;;4899907;29;19927;-69
2023/05/14 01:23:18;;;;;;;;;;;11.90;99.90;;;;;;4899333;29;20010;-70
2023/05/14 01:25:44;;;;;;;;;;;11.90;99.90;;;;;;4898474;29;19984;-68
2023/05/14 01:28:17;;;;;;;;;;;11.90;99.90;;;;;;4913956;29;19928;-68
2023/05/14 01:30:49;;;;;;;;;;;11.90;99.90;;;;;;4898828;29;20117;-69
2023/05/14 01:33:16;;;;;;;;;;;11.90;99.90;;;;;;4914017;29;19979;-68
2023/05/14 01:35:43;;;;;;;;;;;11.90;99.90;;;;;;4898618;29;19927;-69
2023/05/14 01:38:10;;;;;;;;;;;11.90;99.90;;;;;;4882805;29;19935;-70
2023/05/14 01:40:36;;;;;;;;;;;11.90;99.90;;;;;;4899539;29;19934;-69
2023/05/14 01:43:02;;;;;;;;;;;11.80;99.90;;;;;;4914137;29;20018;-69
2023/05/14 01:45:29;;;;;;;;;;;11.80;99.90;;;;;;4899262;29;19928;-68
2023/05/14 01:47:54;;;;;;;;;;;11.80;99.90;;;;;;4914066;29;19934;-69
2023/05/14 01:50:20;;;;;;;;;;;11.90;99.90;;;;;;4897930;29;19927;-68
2023/05/14 01:52:47;;;;;;;;;;;11.80;99.90;;;;;;4899290;29;19979;-69
2023/05/14 01:55:14;;;;;;;;;;;11.80;99.90;;;;;;4898034;29;19927;-69
2023/05/14 01:57:39;;;;;;;;;;;11.70;99.90;;;;;;4913569;29;19979;-69
2023/05/14 02:00:05;;;;;;;;;;;11.70;99.90;;;;;;4882751;29;19927;-74
2023/05/14 02:02:31;;;;;;;;;;;11.60;99.90;;;;;;4913856;29;19956;-69
2023/05/14 02:04:56;;;;;;;;;;;11.60;99.90;;;;;;4898048;29;20379;-70
2023/05/14 02:07:22;;;;;;;;;;;11.50;99.90;;;;;;4898668;29;19927;-68
2023/05/14 02:09:47;;;;;;;;;;;11.50;99.90;;;;;;4913518;29;19935;-67
2023/05/14 02:12:13;;;;;;;;;;;11.50;99.90;;;;;;4913128;29;20030;-68
2023/05/14 02:14:39;;;;;;;;;;;11.40;99.90;;;;;;4897205;29;20293;-68
2023/05/14 02:17:04;;;;;;;;;;;11.40;99.90;;;;;;4897417;29;19989;-68
2023/05/14 02:19:30;;;;;;;;;;;11.40;99.90;;;;;;4897386;29;19934;-69
2023/05/14 02:21:55;;;;;;;;;;;11.30;99.90;;;;;;4897792;29;20381;-68
2023/05/14 02:24:21;;;;;;;;;;;11.30;99.90;;;;;;4897509;29;20022;-68
2023/05/14 02:26:47;;;;;;;;;;;11.30;99.90;;;;;;4913282;29;20407;-69
2023/05/14 02:29:12;;;;;;;;;;;11.30;99.90;;;;;;4897038;29;20056;-68
2023/05/14 02:31:38;;;;;;;;;;;11.30;99.90;;;;;;4913430;29;19928;-68
2023/05/14 02:34:05;;;;;;;;;;;11.30;99.90;;;;;;4897562;29;20367;-68
2023/05/14 02:36:31;;;;;;;;;;;11.30;99.90;;;;;;4898177;29;19930;-68
2023/05/14 02:38:57;;;;;;;;;;;11.30;99.90;;;;;;4866514;29;19932;-68
2023/05/14 02:41:23;;;;;;;;;;;11.30;99.90;;;;;;4881550;29;20330;-68
2023/05/14 02:43:49;;;;;;;;;;;11.30;99.90;;;;;;4898471;29;19928;-69
2023/05/14 02:46:14;;;;;;;;;;;11.30;99.90;;;;;;4912730;29;20022;-69
2023/05/14 02:48:40;;;;;;;;;;;11.30;99.90;;;;;;4912668;29;19934;-68
2023/05/14 02:51:06;;;;;;;;;;;11.30;99.90;;;;;;4898153;29;19990;-68
2023/05/14 02:53:32;;;;;;;;;;;11.30;99.90;;;;;;4896943;29;20515;-70
2023/05/14 02:55:57;;;;;;;;;;;11.40;99.90;;;;;;4881600;29;19935;-68
2023/05/14 02:58:23;;;;;;;;;;;11.40;99.90;;;;;;4912513;29;19954;-68
2023/05/14 03:00:48;;;;;;;;;;;11.30;99.90;;;;;;4896614;29;20294;-68
2023/05/14 03:03:14;;;;;;;;;;;11.30;99.90;;;;;;4896909;29;19928;-73
2023/05/14 03:05:39;;;;;;;;;;;11.40;99.90;;;;;;4912563;29;19928;-68
2023/05/14 03:08:05;;;;;;;;;;;11.30;99.90;;;;;;4865194;29;19932;-68
2023/05/14 03:10:31;;;;;;;;;;;12.10;99.90;;;;;;4896519;29;19927;-68
2023/05/14 03:12:57;;;;;;;;;;;11.30;99.90;;;;;;4896721;29;19927;-68
2023/05/14 03:15:22;;;;;;;;;;;11.30;99.90;;;;;;4897213;29;19938;-68
2023/05/14 03:17:48;;;;;;;;;;;11.30;99.90;;;;;;4897519;29;19927;-68
2023/05/14 03:20:14;;;;;;;;;;;11.30;99.90;;;;;;4912544;29;19927;-67
2023/05/14 03:22:40;;;;;;;;;;;11.30;99.90;;;;;;4896132;29;19928;-68
2023/05/14 03:25:06;;;;;;;;;;;11.30;99.90;;;;;;4880746;29;19991;-68
2023/05/14 03:27:32;;;;;;;;;;;11.30;99.90;;;;;;4897063;29;20018;-68
2023/05/14 03:29:58;;;;;;;;;;;11.30;99.90;;;;;;4881033;29;20022;-70
2023/05/14 03:32:23;;;;;;;;;;;11.30;99.90;;;;;;4896956;29;19971;-68
2023/05/14 03:34:49;;;;;;;;;;;11.30;99.90;;;;;;4896292;29;20412;-69
2023/05/14 03:37:14;;;;;;;;;;;11.30;99.90;;;;;;4896338;29;19995;-69
2023/05/14 03:39:40;;;;;;;;;;;11.30;99.90;;;;;;4880587;29;19986;-69
2023/05/14 03:42:06;;;;;;;;;;;11.30;99.90;;;;;;4880390;29;19935;-72
2023/05/14 03:44:31;;;;;;;;;;;11.30;99.90;;;;;;4895845;29;19956;-69
2023/05/14 03:46:57;;;;;;;;;;;11.20;99.90;;;;;;4880529;29;20019;-72
2023/05/14 03:49:23;;;;;;;;;;;11.20;99.90;;;;;;4896733;29;20071;-69
2023/05/14 03:51:48;;;;;;;;;;;11.20;99.90;;;;;;4896029;29;20006;-69
2023/05/14 03:54:14;;;;;;;;;;;11.20;99.90;;;;;;4911919;29;19963;-69
2023/05/14 03:56:40;;;;;;;;;;;11.20;99.90;;;;;;4911253;29;20584;-69
2023/05/14 03:59:05;;;;;;;;;;;11.10;99.90;;;;;;4911838;29;20302;-69
2023/05/14 04:01:31;;;;;;;;;;;11.10;99.90;;;;;;4895652;29;19927;-70
2023/05/14 04:03:56;;;;;;;;;;;11.10;99.90;;;;;;4880364;29;19979;-69
2023/05/14 04:06:22;;;;;;;;;;;11.10;99.90;;;;;;4864680;29;20537;-74
2023/05/14 04:08:47;;;;;;;;;;;11.00;99.90;;;;;;4896398;29;19927;-69
2023/05/14 04:11:13;;;;;;;;;;;11.10;99.90;;;;;;4911574;29;19928;-69
2023/05/14 04:13:39;;;;;;;;;;;11.10;99.90;;;;;;4896518;29;19956;-69
2023/05/14 04:16:04;;;;;;;;;;;11.00;99.90;;;;;;4880242;29;20385;-71
2023/05/14 04:18:33;;;;;;;;;;;11.00;99.90;;;;;;4895038;29;19927;-69
2023/05/14 04:20:59;;;;;;;;;;;11.10;99.90;;;;;;4911606;29;19978;-69
2023/05/14 04:23:25;;;;;;;;;;;11.10;99.90;;;;;;4895429;29;19979;-74
2023/05/14 04:25:50;;;;;;;;;;;11.30;99.90;;;;;;4895478;29;19928;-69
2023/05/14 04:28:16;;;;;;;;;;;11.10;99.90;;;;;;4897214;29;19932;-69
2023/05/14 04:30:41;;;;;;;;;;;11.10;99.90;;;;;;4900361;29;20289;-69
2023/05/14 04:33:07;;;;;;;;;;;11.20;99.90;;;;;;4899477;29;19927;-70
2023/05/14 04:35:33;;;;;;;;;;;11.20;99.90;;;;;;4883567;29;20381;-69
2023/05/14 04:37:58;;;;;;;;;;;11.20;99.90;;;;;;4899633;29;19928;-69
2023/05/14 04:40:24;;;;;;;;;;;11.20;99.90;;;;;;4899582;29;19975;-69
2023/05/14 04:42:49;;;;;;;;;;;11.30;99.90;;;;;;4883587;29;19927;-69
2023/05/14 04:45:15;;;;;;;;;;;11.30;99.90;;;;;;4883569;29;19928;-69
2023/05/14 04:47:41;;;;;;;;;;;11.40;99.90;;;;;;4898764;29;20298;-69
2023/05/14 04:50:08;;;;;;;;;;;11.50;99.90;;;;;;4883758;29;19928;-68
2023/05/14 04:52:34;;;;;;;;;;;11.70;99.90;;;;;;4914394;29;20313;-68
2023/05/14 04:55:00;;;;;;;;;;;11.80;99.90;;;;;;4899305;29;19927;-68
2023/05/14 04:57:25;;;;;;;;;;;11.80;99.90;;;;;;4899240;29;19934;-68
2023/05/14 04:59:51;;;;;;;;;;;11.90;99.90;;;;;;4898549;29;19928;-68
2023/05/14 05:02:16;;;;;;;;;;;12.00;99.90;;;;;;4868087;29;19928;-68
2023/05/14 05:04:42;;;;;;;;;;;12.10;99.90;;;;;;4898323;29;19967;-68
2023/05/14 05:07:08;;;;;;;;;;;12.10;99.90;;;;;;4899869;29;20297;-69
2023/05/14 05:09:33;;;;;;;;;;;12.10;99.90;;;;;;4867052;29;19927;-68
2023/05/14 05:12:00;;;;;;;;;;;12.10;99.90;;;;;;4898387;29;19959;-67
2023/05/14 05:14:26;;;;;;;;;;;12.20;99.90;;;;;;4900031;29;19951;-68
2023/05/14 05:16:51;;;;;;;;;;;12.20;99.90;;;;;;4899412;29;19955;-68
2023/05/14 05:19:17;;;;;;;;;;;12.30;99.90;;;;;;4899658;29;19928;-70
2023/05/14 05:21:42;;;;;;;;;;;12.40;99.90;;;;;;4913789;29;19931;-69
2023/05/14 05:24:08;;;;;;;;;;;12.70;99.90;;;;;;4883118;29;19934;-70
2023/05/14 05:26:35;;;;;;;;;;;12.50;99.90;;;;;;4914082;29;19927;-74
2023/05/14 05:29:02;;;;;;;;;;;12.60;99.90;;;;;;4882689;29;19927;-68
2023/05/14 05:31:28;;;;;;;;;;;12.70;99.90;;;;;;4898334;29;19946;-68
2023/05/14 05:33:53;;;;;;;;;;;12.80;99.90;;;;;;4913942;29;20542;-68
2023/05/14 05:36:19;;;;;;;;;;;12.90;99.90;;;;;;4898228;29;20434;-68
2023/05/14 05:38:44;;;;;;;;;;;13.00;99.90;;;;;;4913856;29;19934;-68
2023/05/14 05:41:10;;;;;;;;;;;13.10;99.90;;;;;;4897973;29;19928;-68
2023/05/14 05:43:36;;;;;;;;;;;13.10;99.90;;;;;;4897906;29;20390;-73
2023/05/14 05:46:01;;;;;;;;;;;13.20;99.90;;;;;;4882700;29;19975;-68
2023/05/14 05:48:27;;;;;;;;;;;13.20;99.90;;;;;;4882374;29;19928;-68
2023/05/14 05:50:52;;;;;;;;;;;13.30;99.90;;;;;;4898648;29;20018;-68
2023/05/14 05:53:18;;;;;;;;;;;13.40;99.90;;;;;;4882661;29;20082;-70
2023/05/14 05:55:44;;;;;;;;;;;13.50;99.90;;;;;;4882213;29;19928;-68
2023/05/14 05:58:09;;;;;;;;;;;13.90;99.90;;;;;;4897712;29;19931;-69
2023/05/14 06:00:35;;;;;;;;;;;14.40;99.90;;;;;;4882372;29;19950;-68
2023/05/14 06:03:01;;;;;;;;;;;14.80;99.90;;;;;;4882090;29;19931;-68
2023/05/14 06:05:27;;;;;;;;;;;;;;;;;;4898066;29;20379;-68
2023/05/14 06:07:53;;;;;;;;;;;;;;;;;;4912692;29;19931;-69
2023/05/14 06:10:19;;;;;;;;;;;;;;;;;;4913462;29;19927;-68
2023/05/14 06:12:45;;;;;;;;;;;15.20;99.90;;;;;;4897837;29;19928;-69
2023/05/14 06:15:11;;;;;;;;;;;16.80;99.90;;;;;;4866579;29;19998;-69
2023/05/14 06:17:36;;;;;;;;;;;17.40;99.90;;;;;;4898884;29;19928;-69
2023/05/14 06:20:04;;;;;;;;;;;17.90;99.90;;;;;;4881534;29;19927;-69
2023/05/14 06:22:30;;;;;;;;;;;;;;;;;;4898724;29;19991;-70
2023/05/14 06:24:56;;;;;;;;;;;;;;;;;;4897362;29;19927;-69
2023/05/14 06:27:21;;;;;;;;;;;18.40;99.90;;;;;;4913354;29;19928;-68
2023/05/14 06:29:47;;;;;;;;;;;19.00;99.90;;;;;;4897415;29;19927;-69
2023/05/14 06:32:14;;;;;;;;;;;19.10;99.90;;;;;;4912968;29;19939;-69
2023/05/14 06:34:41;;;;;;;;;;;18.90;99.90;;;;;;4898621;29;19928;-68
2023/05/14 06:37:08;;;;;;;;;;;18.60;99.90;;;;;;4881956;29;20110;-69
2023/05/14 06:39:34;;;;;;;;;;;18.50;99.90;;;;;;4897416;29;19928;-70
2023/05/14 06:42:00;;;;;;;;;;;18.40;99.90;;;;;;4881354;29;19933;-70
2023/05/14 06:44:25;;;;;;;;;;;18.30;99.90;;;;;;4881202;29;20304;-68
2023/05/14 06:46:51;;;;;;;;;;;18.20;99.90;;;;;;4897961;29;19934;-69
2023/05/14 06:49:16;;;;;;;;;;;18.00;99.90;;;;;;4912483;29;20274;-69
2023/05/14 06:51:42;;;;;;;;;;;17.70;99.90;;;;;;4880980;29;20010;-69
2023/05/14 06:54:08;;;;;;;;;;;17.60;99.90;;;;;;4896293;29;20400;-69
2023/05/14 06:56:33;;;;;;;;;;;;;;;;;;4896873;29;19927;-70
2023/05/14 06:58:59;;;;;;;;;;;;;;;;;;4896444;29;20378;-68
2023/05/14 07:01:26;;;;;;;;;;;;;;;;;;4896812;29;19927;-69
2023/05/14 07:03:51;;;;;;;;;;;;;;;;;;4912169;29;20034;-68
2023/05/14 07:06:17;;;;;;;;;;;;;;;;;;4912790;29;20414;-67
2023/05/14 07:08:46;;;;;;;;;;;;;;;;;;4912067;29;20412;-67
2023/05/14 07:11:12;;;;;;;;;;;;;;;;;;4911848;29;19928;-66
2023/05/14 07:13:38;;;;;;;;;;;;;;;;;;4912231;29;20019;-69
2023/05/14 07:16:04;;;;;;;;;;;17.40;99.90;;;;;;4896537;29;19927;-68
2023/05/14 07:18:30;;;;;;;;;;;18.30;99.90;;;;;;4896595;29;20379;-68
2023/05/14 07:20:56;;;;;;;;;;;18.50;99.90;;;;;;4880467;29;19927;-70
2023/05/14 07:23:21;;;;;;;;;;;18.70;99.90;;;;;;4865504;29;19928;-70
2023/05/14 07:25:47;;;;;;;;;;;18.90;99.90;;;;;;4896279;29;19939;-73
2023/05/14 07:28:12;;;;;;;;;;;19.10;99.90;;;;;;4895807;29;19947;-70
2023/05/14 07:30:38;;;;;;;;;;;19.30;99.90;;;;;;4880818;29;20021;-70
2023/05/14 07:33:04;;;;;;;;;;;19.60;99.90;;;;;;4911560;29;19935;-69
2023/05/14 07:35:29;;;;;;;;;;;19.50;99.90;;;;;;4896211;29;19931;-69
2023/05/14 07:37:55;;;;;;;;;;;19.60;99.90;;;;;;4896221;29;19927;-69
2023/05/14 07:40:21;;;;;;;;;;;19.80;99.90;;;;;;4896240;29;19950;-69
2023/05/14 07:42:46;;;;;;;;;;;19.90;99.90;;;;;;4911895;29;19974;-70
2023/05/14 07:45:12;;;;;;;;;;;19.90;99.90;;;;;;4896752;29;20088;-69
2023/05/14 07:47:38;;;;;;;;;;;19.70;99.90;;;;;;4880425;29;19938;-69
2023/05/14 07:50:03;;;;;;;;;;;19.50;99.90;;;;;;4865100;29;20334;-69
2023/05/14 07:52:29;;;;;;;;;;;19.30;99.90;;;;;;4880457;29;19967;-69
2023/05/14 07:54:55;;;;;;;;;;;19.50;99.90;;;;;;4895746;29;19927;-69
2023/05/14 07:57:20;;;;;;;;;;;19.50;99.90;;;;;;4880237;29;19928;-69
2023/05/14 07:59:46;;;;;;;;;;;19.30;99.90;;;;;;4911917;29;19927;-69
2023/05/14 08:02:12;;;;;;;;;;;19.20;99.90;;;;;;4896668;29;20338;-69
2023/05/14 08:04:38;;;;;;;;;;;18.90;99.90;;;;;;4911413;29;20021;-68
2023/05/14 08:07:04;;;;;;;;;;;18.70;99.90;;;;;;4880219;29;19927;-70
2023/05/14 08:09:30;;;;;;;;;;;18.60;99.90;;;;;;4910847;29;19935;-69
2023/05/14 08:11:55;;;;;;;;;;;18.60;99.90;;;;;;4895761;29;19927;-75
2023/05/14 08:14:21;;;;;;;;;;;18.50;99.90;;;;;;4880176;29;19955;-70
2023/05/14 08:16:47;;;;;;;;;;;18.70;99.90;;;;;;4911730;29;19946;-70
2023/05/14 08:19:13;;;;;;;;;;;19.10;99.90;;;;;;4880201;29;19931;-69
2023/05/14 08:21:39;;;;;;;;;;;19.60;99.90;;;;;;4895929;29;19927;-70
2023/05/14 08:24:05;;;;;;;;;;;19.90;99.90;;;;;;4895746;29;19999;-70
2023/05/14 08:26:31;;;;;;;;;;;;;;;;;;4896879;29;20410;-70
2023/05/14 08:28:57;;;;;;;;;;;;;;;;;;4911015;29;19971;-75
2023/05/14 08:31:23;;;;;;;;;;;;;;;;;;4911481;29;19998;-70
2023/05/14 08:33:48;;;;;;;;;;;20.10;99.90;;;;;;4895890;29;19931;-70
2023/05/14 08:36:14;;;;;;;;;;;20.80;99.90;;;;;;4896499;29;20034;-70
2023/05/14 08:38:41;;;;;;;;;;;21.00;99.90;;;;;;4911579;29;20345;-70
2023/05/14 08:41:07;;;;;;;;;;;21.20;99.90;;;;;;4895308;29;19984;-69
2023/05/14 08:43:44;;;;;;;;;;;21.30;99.90;;;;;;4895808;29;19931;-69
2023/05/14 08:46:12;;;;;;;;;;;21.40;99.90;;;;;;4895189;29;19927;-69
2023/05/14 08:48:39;;;;;;;;;;;21.40;99.90;;;;;;4895250;29;19927;-68
2023/05/14 08:51:05;;;;;;;;;;;21.50;99.90;;;;;;4911030;29;19978;-68
2023/05/14 08:53:31;;;;;;;;;;;21.20;99.90;;;;;;4911415;29;19931;-69
2023/05/14 08:55:57;;;;;;;;;;;21.20;99.90;;;;;;4879477;29;19978;-68
2023/05/14 08:58:24;;;;;;;;;;;21.20;99.90;;;;;;4896238;29;19932;-69
2023/05/14 09:00:50;;;;;;;;;;;21.50;99.90;;;;;;4895650;29;19931;-69
2023/05/14 09:03:16;;;;;;;;;;;21.60;99.90;;;;;;4894948;29;19931;-69
2023/05/14 09:05:41;;;;;;;;;;;21.80;99.90;;;;;;4896557;29;20107;-69
2023/05/14 09:08:07;;;;;;;;;;;21.90;99.90;;;;;;4895714;29;19927;-69
2023/05/14 09:10:33;;;;;;;;;;;22.00;99.90;;;;;;4895508;29;19931;-69
2023/05/14 09:12:58;;;;;;;;;;;22.10;99.90;;;;;;4896656;29;19928;-68
2023/05/14 09:15:26;;;;;;;;;;;22.10;99.90;;;;;;4896897;29;19931;-71
2023/05/14 09:17:52;;;;;;;;;;;22.00;99.90;;;;;;4899980;29;19974;-68
2023/05/14 09:20:17;;;;;;;;;;;21.90;99.90;;;;;;4882677;29;19983;-68
2023/05/14 09:22:43;;;;;;;;;;;21.70;99.90;;;;;;4898840;29;19935;-68
2023/05/14 09:25:11;;;;;;;;;;;21.80;99.90;;;;;;4898394;29;19927;-68
2023/05/14 09:27:36;;;;;;;;;;;21.90;99.90;;;;;;4898513;29;20301;-71
2023/05/14 09:30:06;;;;;;;;;;;22.30;99.90;;;;;;4882830;29;19952;-68
2023/05/14 09:32:39;;;;;;;;;;;22.50;99.90;;;;;;4897691;29;20440;-68
2023/05/14 09:35:16;;;;;;;;;;;22.70;99.90;;;;;;4898280;29;19927;-74
2023/05/14 09:37:42;;;;;;;;;;;22.60;99.90;;;;;;4914179;29;19967;-71
2023/05/14 09:40:09;;;;;;;;;;;22.70;99.90;;;;;;4899398;29;19927;-68
2023/05/14 09:42:35;;;;;;;;;;;22.80;99.90;;;;;;4867409;29;19971;-68
2023/05/14 09:45:00;;;;;;;;;;;23.00;99.90;;;;;;4914315;29;19951;-67
2023/05/14 09:47:26;;;;;;;;;;;22.80;99.90;;;;;;4882139;29;20381;-68
2023/05/14 09:49:52;;;;;;;;;;;22.70;99.90;;;;;;4898367;29;19999;-68
2023/05/14 09:52:18;;;;;;;;;;;22.50;99.90;;;;;;4913391;29;19928;-67
2023/05/14 09:54:45;;;;;;;;;;;22.40;99.90;;;;;;4899297;29;19931;-70
2023/05/14 09:57:10;;;;;;;;;;;22.40;99.90;;;;;;4882228;29;19928;-70
2023/05/14 09:59:36;;;;;;;;;;;22.40;99.90;;;;;;4913741;29;19952;-68
2023/05/14 10:02:03;;;;;;;;;;;22.30;99.90;;;;;;4914072;29;20123;-69
2023/05/14 10:04:28;;;;;;;;;;;22.10;99.90;;;;;;4897791;29;19927;-67
2023/05/14 10:06:54;;;;;;;;;;;22.00;99.90;;;;;;4882574;29;20003;-70
2023/05/14 10:09:22;;;;;;;;;;;21.90;99.90;;;;;;4881237;29;19927;-70
2023/05/14 10:11:51;;;;;;;;;;;22.10;99.90;;;;;;4913204;29;20275;-70
2023/05/14 10:14:24;;;;;;;;;;;22.20;99.90;;;;;;4897336;29;19927;-71
2023/05/14 10:16:50;;;;;;;;;;;22.20;99.90;;;;;;4899051;29;20022;-70
2023/05/14 10:19:16;;;;;;;;;;;22.20;99.90;;;;;;4913201;29;19931;-69
2023/05/14 10:21:44;;;;;;;;;;;22.30;99.90;;;;;;4897929;29;19928;-70
2023/05/14 10:24:09;;;;;;;;;;;22.30;99.90;;;;;;4897584;29;19928;-69
2023/05/14 10:26:38;;;;;;;;;;;22.10;99.90;;;;;;4896508;29;19927;-70
2023/05/14 10:29:04;;;;;;;;;;;22.00;99.90;;;;;;4898471;29;20282;-70
2023/05/14 10:31:50;;;;;;;;;;;22.00;99.90;;;;;;4897137;29;19944;-69
2023/05/14 10:34:39;;;;;;;;;;;22.00;99.90;;;;;;4881041;29;20121;-71
2023/05/14 10:37:09;;;;;;;;;;;21.90;99.90;;;;;;4898411;29;20014;-70
2023/05/14 10:39:41;;;;;;;;;;;21.90;99.90;;;;;;4897347;29;19923;-71
2023/05/14 10:42:11;;;;;;;;;;;22.00;99.90;;;;;;4913229;29;19927;-70
2023/05/14 10:44:39;;;;;;;;;;;21.90;99.90;;;;;;4896800;29;20023;-70
2023/05/14 10:47:06;;;;;;;;;;;21.90;99.90;;;;;;4897267;29;19927;-72
2023/05/14 10:49:32;;;;;;;;;;;21.90;99.90;;;;;;4912598;29;20022;-69
2023/05/14 10:51:58;;;;;;;;;;;22.00;99.90;;;;;;4912747;29;19975;-70
2023/05/14 10:54:26;;;;;;;;;;;22.00;99.90;;;;;;4912443;29;19928;-71
2023/05/14 10:56:52;;;;;;;;;;;22.10;99.90;;;;;;4912656;29;19975;-70
2023/05/14 10:59:18;;;;;;;;;;;22.20;99.90;;;;;;4881114;29;19934;-73
2023/05/14 11:01:44;;;;;;;;;;;22.30;99.90;;;;;;4866285;29;20120;-70
2023/05/14 11:04:16;;;;;;;;;;;22.30;99.90;;;;;;4897920;29;19980;-68
2023/05/14 11:06:43;;;;;;;;;;;22.40;99.90;;;;;;4896641;29;19927;-69
2023/05/14 11:09:09;;;;;;;;;;;22.40;99.90;;;;;;4896273;29;19927;-70
2023/05/14 11:11:35;;;;;;;;;;;22.50;99.90;;;;;;4912220;29;20022;-69
2023/05/14 11:14:00;;;;;;;;;;;22.50;99.90;;;;;;4912274;29;20074;-69
2023/05/14 11:16:29;;;;;;;;;;;22.50;99.90;;;;;;4895915;29;19935;-68
2023/05/14 11:19:04;;;;;;;;;;;22.50;99.90;;;;;;4912553;29;20286;-69
2023/05/14 11:21:31;;;;;;;;;;;22.60;99.90;;;;;;4896278;29;19928;-70
2023/05/14 11:23:58;;;;;;;;;;;22.60;99.90;;;;;;4912502;29;20278;-66
2023/05/14 11:26:24;;;;;;;;;;;22.60;99.80;;;;;;4895857;29;19927;-69
2023/05/14 11:28:50;;;;;;;;;;;22.60;99.30;;;;;;4912187;29;19934;-66
2023/05/14 11:31:16;;;;;;;;;;;22.70;99.60;;;;;;4897760;29;20313;-65
2023/05/14 11:33:41;;;;;;;;;;;22.70;99.70;;;;;;4896097;29;19923;-67
2023/05/14 11:36:09;;;;;;;;;;;22.70;99.60;;;;;;4896384;29;19928;-67
2023/05/14 11:38:46;;;;;;;;;;;22.90;99.80;;;;;;4911430;29;19927;-66
2023/05/14 11:41:13;;;;;;;;;;;22.80;99.50;;;;;;4896216;29;19950;-68
2023/05/14 11:43:38;;;;;;;;;;;22.80;99.70;;;;;;4896211;29;19928;-68
2023/05/14 11:46:04;;;;;;;;;;;22.80;99.90;;;;;;4897338;29;19950;-68
2023/05/14 11:48:30;;;;;;;;;;;22.70;99.80;;;;;;4895734;29;19987;-68
2023/05/14 11:50:56;;;;;;;;;;;22.70;99.70;;;;;;4897349;29;19928;-69
2023/05/14 11:53:26;;;;;;;;;;;22.70;99.90;;;;;;4896511;29;19991;-70
2023/05/14 11:55:53;;;;;;;;;;;22.80;98.40;;;;;;4897318;29;19935;-71
2023/05/14 11:58:19;;;;;;;;;;;22.70;98.00;;;;;;4880668;29;20026;-73
2023/05/14 12:00:45;;;;;;;;;;;22.80;98.40;;;;;;4880410;29;19982;-70
2023/05/14 12:03:10;;;;;;;;;;;22.90;96.80;;;;;;4896043;29;20283;-71
2023/05/14 12:05:37;;;;;;;;;;;23.00;96.50;;;;;;4895867;29;19927;-70
2023/05/14 12:08:18;;;;;;;;;;;23.10;94.50;;;;;;4895624;29;19932;-71
2023/05/14 12:10:43;;;;;;;;;;;23.00;93.90;;;;;;4911535;29;19938;-71
2023/05/14 12:13:09;;;;;;;;;;;23.00;93.60;;;;;;4911809;29;19928;-70
2023/05/14 12:15:34;;;;;;;;;;;23.00;93.70;;;;;;4895723;29;19934;-71
2023/05/14 12:18:00;;;;;;;;;;;23.00;91.60;;;;;;4895799;29;20285;-71
2023/05/14 12:20:28;;;;;;;;;;;23.10;92.30;;;;;;4897075;29;20357;-71
2023/05/14 12:22:53;;;;;;;;;;;23.20;93.20;;;;;;4895776;29;19927;-70
2023/05/14 12:25:19;;;;;;;;;;;23.30;93.00;;;;;;4895822;29;19934;-71
2023/05/14 12:27:45;;;;;;;;;;;23.40;91.40;;;;;;4895567;29;19934;-71
2023/05/14 12:30:11;;;;;;;;;;;23.50;92.40;;;;;;4880524;29;19935;-71
2023/05/14 12:32:38;;;;;;;;;;;23.60;91.20;;;;;;4896661;29;19935;-70
2023/05/14 12:35:03;;;;;;;;;;;23.70;92.10;;;;;;4880386;29;19938;-71
2023/05/14 12:37:29;;;;;;;;;;;23.60;91.30;;;;;;4895312;29;20010;-75
2023/05/14 12:39:55;;;;;;;;;;;23.60;91.90;;;;;;4895516;29;19956;-71
2023/05/14 12:42:21;;;;;;;;;;;23.50;91.60;;;;;;4880248;29;19950;-71
2023/05/14 12:44:46;;;;;;;;;;;23.40;91.90;;;;;;4895590;29;19933;-71
2023/05/14 12:47:12;;;;;;;;;;;23.30;91.40;;;;;;4895142;29;20022;-71
2023/05/14 12:49:38;;;;;;;;;;;23.30;89.60;;;;;;4897051;29;19969;-72
2023/05/14 12:52:04;;;;;;;;;;;23.30;90.40;;;;;;4883738;29;19928;-72
2023/05/14 12:54:30;;;;;;;;;;;23.30;91.00;;;;;;4883987;29;19927;-72
2023/05/14 12:56:56;;;;;;;;;;;23.30;91.10;;;;;;4898494;29;19927;-71
2023/05/14 12:59:22;;;;;;;;;;;23.40;91.00;;;;;;4900430;29;19927;-71
2023/05/14 13:01:47;;;;;;;;;;;23.40;91.40;;;;;;4899048;29;20286;-72
2023/05/14 13:04:13;;;;;;;;;;;23.30;90.90;;;;;;4899318;29;20019;-71
2023/05/14 13:06:39;;;;;;;;;;;23.30;91.60;;;;;;4883165;29;20374;-70
2023/05/14 13:09:05;;;;;;;;;;;23.30;91.70;;;;;;4898873;29;19928;-71
2023/05/14 13:11:31;;;;;;;;;;;23.40;91.30;;;;;;4914986;29;19927;-71
2023/05/14 13:14:00;;;;;;;;;;;23.40;91.40;;;;;;4883077;29;20200;-70
2023/05/14 13:16:26;;;;;;;;;;;23.50;92.80;;;;;;4898664;29;19927;-72
2023/05/14 13:18:52;;;;;;;;;;;23.50;97.20;;;;;;4883079;29;20267;-71
2023/05/14 13:21:17;;;;;;;;;;;23.40;98.10;;;;;;4868149;29;20425;-71
2023/05/14 13:23:43;;;;;;;;;;;23.40;98.60;;;;;;4898664;29;20394;-71
2023/05/14 13:26:08;;;;;;;;;;;23.40;98.50;;;;;;4914375;29;19928;-70
2023/05/14 13:28:34;;;;;;;;;;;23.20;98.00;;;;;;4898744;29;20003;-73
2023/05/14 13:31:07;;;;;;;;;;;23.20;99.00;;;;;;4883170;29;19934;-72
2023/05/14 13:33:36;;;;;;;;;;;23.10;99.20;;;;;;4898992;29;19934;-71
2023/05/14 13:36:02;;;;;;;;;;;23.20;98.90;;;;;;4883121;29;19982;-71
2023/05/14 13:38:28;;;;;;;;;;;23.20;99.90;;;;;;4883375;29;19928;-71
2023/05/14 13:40:56;;;;;;;;;;;23.10;99.90;;;;;;4899384;29;19934;-71
2023/05/14 13:43:22;;;;;;;;;;;23.00;99.90;;;;;;4883460;29;19927;-71
2023/05/14 13:45:48;;;;;;;;;;;22.90;99.90;;;;;;4898338;29;19943;-71
2023/05/14 13:48:14;;;;;;;;;;;22.80;99.90;;;;;;4882729;29;19959;-71
2023/05/14 13:50:39;;;;;;;;;;;22.70;99.90;;;;;;4882874;29;20022;-72
2023/05/14 13:53:05;;;;;;;;;;;22.70;99.90;;;;;;4914319;29;19932;-71
2023/05/14 13:55:30;;;;;;;;;;;22.70;99.90;;;;;;4899029;29;20380;-72
2023/05/14 13:57:56;;;;;;;;;;;22.70;99.90;;;;;;4898130;29;20018;-71
2023/05/14 14:00:21;;;;;;;;;;;22.60;99.90;;;;;;4882753;29;20370;-70
2023/05/14 14:02:47;;;;;;;;;;;22.70;99.90;;;;;;4898052;29;19927;-71
2023/05/14 14:05:13;;;;;;;;;;;22.70;99.90;;;;;;4882773;29;19931;-73
2023/05/14 14:07:39;;;;;;;;;;;22.70;99.90;;;;;;4882206;29;19932;-72
2023/05/14 14:10:05;;;;;;;;;;;22.70;99.90;;;;;;4897960;29;19934;-71
2023/05/14 14:12:30;;;;;;;;;;;22.70;99.90;;;;;;4897884;29;20014;-71
2023/05/14 14:14:56;;;;;;;;;;;22.60;99.90;;;;;;4882039;29;20365;-71
2023/05/14 14:17:22;;;;;;;;;;;22.60;99.90;;;;;;4866649;29;20018;-73